Airfield :
LOGIN :

Register | Disclaimer

   EN    FR    IT 

 










Legend :    VFR   Marginal VFR   IFR   Intensive IFR   Very Intensive IFR
Visi :
Ceiling :
>= 8 km
>= 3000ft
5 to 8 km
1000 to 3000 ft
1500m to 5 km
500 to 1000 ft
800 to 1500m
200 to 500 ft
< 800m
< 200 ft
Symbols :   Thunderstorms  Fog  Heavy snow  Heavy precipitations  Wind > 20 kt
SIGMETs :     Misc.  Thunderstorms  Icing  Turbulence  Mountain Waves  Volcanic Ashes







- Airport Elevation : 102 ft
- IATA code : EXT
- Download approach charts


EGTE - Exeter

CURRENT METAR :
  • 212220Z 19002KT CAVOK 07/06 Q1020

EXPIRED METARs :
  • 212150Z 15002KT CAVOK 08/07 Q1020
  • 212120Z VRB02KT CAVOK 08/07 Q1019
  • 212050Z 21002KT CAVOK 09/07 Q1019
  • 212020Z 12003KT CAVOK 09/07 Q1019
  • 211950Z 24003KT 9999 FEW025 10/08 Q1019

TAF TAF EGTE
Valid from the 21 at 21:00 until the 22 at 01:00 UTC


211954Z 2121/2201 VRB03KT 9999 FEW025
PROB40 2123/2201 4000 BR
No reported NOTAMs for that airfield.



MET'MAP, your aeronautical weather chart ! - Copyright ORBIFLY December 2007 - Disclaimer

ORBIFLY MET'MAP TEAM :

Programming & Development : Alexandra Zaïnal
Concept & Development : Baudouin d'Aumeries
Co-Development & Prog : Marc-Olivier Méhu
Technical & hardware support : Manuel Goepfert

Contact : metmap@orbifly.com




SOURCES & CREDITS :

   NOAA